createdAt,value
2019-04-29T00:01:32.624Z,43.95
2019-04-29T00:04:30.317Z,41.73
2019-04-29T00:07:34.671Z,42.23
2019-04-29T00:10:44.655Z,44.20
2019-04-29T00:13:56.307Z,40.17
2019-04-29T00:17:00.714Z,41.33
2019-04-29T00:20:16.205Z,38.33
2019-04-29T00:23:27.484Z,41.45
2019-04-29T00:26:31.345Z,38.73
2019-04-29T00:29:38.294Z,43.85
2019-04-29T00:32:49.719Z,40.28
2019-04-29T00:35:57.438Z,37.83
2019-04-29T00:39:12.544Z,37.63
2019-04-29T00:42:18.975Z,36.30
2019-04-29T00:45:32.523Z,35.23
2019-04-29T00:48:33.379Z,37.78
2019-04-29T00:51:30.651Z,35.58
2019-04-29T00:54:30.403Z,35.92
2019-04-29T00:57:49.782Z,33.05
2019-04-29T01:00:57.299Z,36.80
2019-04-29T01:04:03.506Z,34.35
2019-04-29T01:07:15.212Z,34.05
2019-04-29T01:10:32.047Z,31.85
2019-04-29T01:13:33.683Z,30.17
2019-04-29T01:16:40.696Z,31.35
2019-04-29T01:19:38.099Z,28.90
2019-04-29T01:23:01.077Z,32.33
2019-04-29T01:26:15.951Z,29.42
2019-04-29T01:29:29.761Z,28.47
2019-04-29T01:32:36.190Z,27.27
2019-04-29T01:35:39.044Z,28.32
2019-04-29T01:38:48.607Z,30.40
2019-04-29T01:42:11.037Z,27.80
2019-04-29T01:45:28.457Z,29.45
2019-04-29T01:48:34.732Z,27.15
2019-04-29T01:52:05.573Z,32.23
2019-04-29T01:54:55.497Z,27.77
2019-04-29T01:58:08.831Z,26.20
2019-04-29T02:01:22.442Z,25.37
2019-04-29T02:04:24.974Z,27.70
2019-04-29T02:07:18.684Z,25.75
2019-04-29T02:10:49.090Z,24.92
2019-04-29T02:14:06.945Z,22.13
2019-04-29T02:17:03.839Z,25.72
2019-04-29T02:20:10.342Z,25.70
2019-04-29T02:23:40.127Z,23.57
2019-04-29T02:26:34.797Z,24.12
2019-04-29T02:29:29.159Z,22.77
2019-04-29T02:32:38.643Z,21.20
2019-04-29T02:35:39.552Z,21.42
2019-04-29T02:39:00.723Z,23.30
2019-04-29T02:42:06.574Z,21.17
2019-04-29T02:45:15.327Z,20.40
2019-04-29T02:48:20.128Z,19.98
2019-04-29T02:51:27.861Z,21.95
2019-04-29T02:54:46.587Z,18.80
2019-04-29T02:58:03.179Z,17.55
2019-04-29T03:01:32.838Z,19.87
2019-04-29T03:04:37.138Z,19.25
2019-04-29T03:08:01.226Z,20.43
2019-04-29T03:11:15.686Z,19.55
2019-04-29T03:14:23.064Z,18.57
2019-04-29T03:17:23.498Z,18.70
2019-04-29T03:20:59.962Z,18.85
2019-04-29T03:24:07.653Z,17.50
2019-04-29T03:27:22.404Z,16.95
2019-04-29T03:30:36.214Z,17.75
2019-04-29T03:33:46.039Z,17.25
2019-04-29T03:36:41.430Z,14.85
2019-04-29T03:39:45.806Z,16.37
2019-04-29T03:42:54.538Z,15.95
2019-04-29T03:46:10.902Z,16.25
2019-04-29T03:49:15.717Z,16.23
2019-04-29T03:52:25.085Z,16.17
2019-04-29T03:55:40.372Z,15.80
2019-04-29T03:58:51.009Z,15.65
2019-04-29T04:02:18.401Z,13.28
2019-04-29T04:05:42.065Z,14.55
2019-04-29T04:09:05.843Z,16.45
2019-04-29T04:12:15.140Z,19.57
2019-04-29T04:15:30.401Z,16.20
2019-04-29T04:18:27.676Z,15.35
2019-04-29T04:21:43.233Z,15.00
2019-04-29T04:25:04.959Z,12.47
2019-04-29T04:27:55.991Z,14.73
2019-04-29T04:30:59.934Z,12.65
2019-04-29T04:34:08.927Z,17.15
2019-04-29T04:37:08.396Z,15.65
2019-04-29T04:40:20.885Z,12.93
2019-04-29T04:43:15.038Z,13.13
2019-04-29T04:46:18.380Z,14.95
2019-04-29T04:49:27.197Z,11.70
2019-04-29T04:52:21.621Z,12.73
2019-04-29T04:55:31.918Z,15.72
2019-04-29T04:58:40.094Z,15.40
2019-04-29T05:01:55.154Z,22.82
2019-04-29T05:05:01.877Z,16.97
2019-04-29T05:07:56.588Z,28.20
2019-04-29T05:11:15.944Z,26.52
2019-04-29T05:14:25.863Z,46.60
2019-04-29T05:17:35.271Z,79.70
2019-04-29T05:20:50.786Z,78.90
2019-04-29T05:23:57.561Z,62.80
2019-04-29T05:27:15.865Z,49.58
2019-04-29T05:30:28.639Z,51.73
2019-04-29T05:33:36.829Z,44.85
2019-04-29T05:37:00.663Z,43.48
2019-04-29T05:40:19.723Z,43.23
2019-04-29T05:43:27.177Z,52.00
2019-04-29T05:46:45.667Z,44.13
2019-04-29T05:49:59.255Z,43.63
2019-04-29T05:53:27.663Z,43.92
2019-04-29T05:56:40.928Z,41.90
2019-04-29T05:59:57.747Z,41.15
2019-04-29T06:03:21.666Z,46.50
2019-04-29T06:06:25.211Z,42.23
2019-04-29T06:09:29.302Z,37.28
2019-04-29T06:12:55.463Z,39.08
2019-04-29T06:16:05.575Z,37.48
2019-04-29T06:19:27.250Z,37.73
2019-04-29T06:22:47.306Z,36.33
2019-04-29T06:25:56.848Z,39.70
2019-04-29T06:29:06.056Z,35.30
2019-04-29T06:32:20.286Z,35.68
2019-04-29T06:35:26.144Z,34.78
2019-04-29T06:38:36.546Z,33.98
2019-04-29T06:41:40.623Z,35.23
2019-04-29T06:44:39.573Z,34.55
2019-04-29T06:47:50.457Z,34.75
2019-04-29T06:51:10.252Z,32.95
2019-04-29T06:54:25.449Z,34.20
2019-04-29T06:57:29.601Z,34.67
2019-04-29T07:00:41.609Z,32.33
2019-04-29T07:03:35.442Z,31.65
2019-04-29T07:06:57.069Z,35.08
2019-04-29T07:09:57.166Z,32.45
2019-04-29T07:13:08.885Z,32.23
2019-04-29T07:16:21.753Z,32.05
2019-04-29T07:19:41.428Z,30.88
2019-04-29T07:22:50.858Z,30.02
2019-04-29T07:25:58.567Z,32.80
2019-04-29T07:29:00.656Z,31.15
2019-04-29T07:32:24.117Z,29.60
2019-04-29T07:35:18.822Z,27.93
2019-04-29T07:38:46.483Z,31.00
2019-04-29T07:41:58.515Z,30.92
2019-04-29T07:45:27.792Z,32.53
2019-04-29T07:48:23.960Z,30.32
2019-04-29T07:51:28.029Z,31.40
2019-04-29T07:54:33.451Z,33.02
2019-04-29T07:57:53.262Z,32.60
2019-04-29T08:01:15.241Z,29.48
2019-04-29T08:04:40.554Z,33.15
2019-04-29T08:07:58.094Z,32.78
2019-04-29T08:11:15.687Z,30.68
2019-04-29T08:14:29.945Z,31.27
2019-04-29T08:17:51.398Z,29.00
2019-04-29T08:21:04.209Z,31.73
2019-04-29T08:24:24.967Z,29.20
2019-04-29T08:27:39.982Z,27.55
2019-04-29T08:31:06.306Z,23.35
2019-04-29T08:34:02.533Z,14.00
2019-04-29T08:37:29.080Z,10.18
2019-04-29T08:40:50.003Z,6.30
2019-04-29T08:44:16.226Z,5.92
2019-04-29T08:47:30.432Z,4.00
2019-04-29T08:50:31.821Z,3.50
2019-04-29T08:53:42.057Z,7.28
2019-04-29T08:57:02.692Z,5.92
2019-04-29T08:59:55.197Z,7.42
2019-04-29T09:02:54.454Z,8.48
2019-04-29T09:06:05.544Z,3.83
2019-04-29T09:09:10.577Z,2.50
2019-04-29T09:12:01.623Z,4.50
2019-04-29T09:14:46.442Z,3.05
2019-04-29T09:17:50.283Z,2.70
2019-04-29T09:21:13.487Z,1.65
2019-04-29T09:24:28.581Z,1.98
2019-04-29T09:27:40.830Z,1.00
2019-04-29T09:30:38.481Z,1.62
2019-04-29T09:33:48.987Z,3.30
2019-04-29T09:37:00.652Z,2.37
2019-04-29T09:40:08.392Z,25.72
2019-04-29T09:43:32.841Z,45.23
2019-04-29T09:46:43.885Z,34.40
2019-04-29T09:49:57.161Z,29.67
2019-04-29T09:53:15.275Z,24.12
2019-04-29T09:56:30.743Z,19.82
2019-04-29T10:00:07.110Z,22.73
2019-04-29T10:03:10.949Z,15.93
2019-04-29T10:06:20.111Z,39.48
2019-04-29T10:09:21.866Z,47.03
2019-04-29T10:12:28.866Z,43.25
2019-04-29T10:15:31.385Z,39.58
2019-04-29T10:18:30.219Z,35.52
2019-04-29T10:21:35.157Z,29.70
2019-04-29T10:24:37.769Z,25.80
2019-04-29T10:27:42.359Z,20.65
2019-04-29T10:30:49.978Z,18.50
2019-04-29T10:33:50.192Z,17.45
2019-04-29T10:36:54.448Z,18.50
2019-04-29T10:40:19.841Z,15.85
2019-04-29T10:43:35.787Z,12.68
2019-04-29T10:46:51.134Z,17.20
2019-04-29T10:50:10.559Z,13.20
2019-04-29T10:53:03.072Z,15.28
2019-04-29T10:55:45.147Z,17.55
2019-04-29T10:58:35.966Z,56.90
2019-04-29T11:02:31.985Z,135.00
2019-04-29T11:05:59.808Z,83.90
2019-04-29T11:08:59.772Z,61.80
2019-04-29T11:12:08.889Z,45.20
2019-04-29T11:15:02.456Z,39.85
2019-04-29T11:18:12.189Z,36.15
2019-04-29T11:21:20.733Z,34.48
2019-04-29T11:24:42.193Z,31.35
2019-04-29T11:27:59.460Z,40.83
2019-04-29T11:30:49.373Z,54.08
2019-04-29T11:33:58.479Z,57.20
2019-04-29T11:36:58.589Z,57.33
2019-04-29T11:40:06.120Z,50.65
2019-04-29T11:43:17.336Z,47.15
2019-04-29T11:46:14.457Z,45.10
2019-04-29T11:48:50.577Z,43.80
2019-04-29T11:51:54.205Z,50.38
2019-04-29T11:54:17.572Z,46.98
2019-04-29T11:56:44.896Z,48.52
2019-04-29T11:59:23.815Z,48.52
2019-04-29T12:02:09.009Z,48.10
2019-04-29T12:04:42.530Z,48.98
2019-04-29T12:07:12.808Z,45.70
2019-04-29T12:09:43.264Z,44.18
2019-04-29T12:12:14.617Z,43.80
2019-04-29T12:15:03.752Z,42.55
2019-04-29T12:17:37.831Z,42.70
2019-04-29T12:20:21.992Z,40.65
2019-04-29T12:22:52.250Z,45.55
2019-04-29T12:25:27.488Z,41.45
2019-04-29T12:28:01.427Z,39.53
2019-04-29T12:30:34.580Z,38.83
2019-04-29T12:33:32.263Z,38.48
2019-04-29T12:36:06.559Z,35.23
2019-04-29T12:38:54.456Z,31.80
2019-04-29T12:42:00.583Z,37.95
2019-04-29T12:44:49.151Z,39.15
2019-04-29T12:47:27.267Z,38.92
2019-04-29T12:49:57.543Z,37.80
2019-04-29T12:52:28.038Z,37.88
2019-04-29T12:55:03.075Z,38.10
2019-04-29T12:57:32.377Z,42.60
2019-04-29T13:00:07.555Z,46.55
2019-04-29T13:03:01.885Z,53.28
2019-04-29T13:05:57.159Z,58.78
2019-04-29T13:08:38.029Z,57.78
2019-04-29T13:11:08.612Z,57.93
2019-04-29T13:13:38.825Z,60.20
2019-04-29T13:16:37.089Z,54.65
2019-04-29T13:19:29.737Z,52.35
2019-04-29T13:21:58.219Z,42.45
2019-04-29T13:24:28.634Z,43.87
2019-04-29T13:26:59.093Z,51.92
2019-04-29T13:29:32.150Z,45.15
2019-04-29T13:32:01.894Z,49.23
2019-04-29T13:34:36.802Z,45.35
2019-04-29T13:37:12.201Z,47.17
2019-04-29T13:39:40.683Z,46.77
2019-04-29T13:42:15.274Z,42.25
2019-04-29T13:45:04.479Z,44.75
2019-04-29T13:47:40.082Z,41.68
2019-04-29T13:50:37.962Z,40.40
2019-04-29T13:52:53.086Z,42.27
2019-04-29T13:55:46.695Z,37.90
2019-04-29T13:57:55.312Z,40.43
2019-04-29T14:00:37.690Z,38.80
2019-04-29T14:03:14.039Z,32.67
2019-04-29T14:05:44.573Z,36.48
2019-04-29T14:08:14.751Z,33.80
2019-04-29T14:10:46.712Z,35.28
2019-04-29T14:13:21.014Z,34.88
2019-04-29T14:15:50.164Z,34.18
2019-04-29T14:18:20.673Z,34.20
2019-04-29T14:20:51.889Z,33.65
2019-04-29T14:23:23.347Z,36.00
2019-04-29T14:25:54.656Z,33.67
2019-04-29T14:28:24.872Z,31.00
2019-04-29T14:30:55.942Z,31.33
2019-04-29T14:33:30.833Z,36.33
2019-04-29T14:36:07.574Z,34.20
2019-04-29T14:38:40.484Z,33.98
2019-04-29T14:41:09.729Z,34.38
2019-04-29T14:44:08.081Z,31.05
2019-04-29T14:46:52.260Z,21.30
2019-04-29T14:49:23.466Z,20.97
2019-04-29T14:51:52.319Z,25.05
2019-04-29T14:54:22.679Z,21.62
2019-04-29T14:56:53.051Z,25.17
2019-04-29T14:59:23.508Z,26.42
2019-04-29T15:02:04.839Z,25.62
2019-04-29T15:04:37.513Z,26.25
2019-04-29T15:07:07.894Z,23.87
2019-04-29T15:09:55.969Z,27.45
2019-04-29T15:12:51.804Z,20.72
2019-04-29T15:15:43.129Z,21.33
2019-04-29T15:18:47.426Z,21.12
2019-04-29T15:21:13.444Z,23.32
2019-04-29T15:23:43.763Z,21.90
2019-04-29T15:26:13.939Z,22.45
2019-04-29T15:28:53.565Z,20.25
2019-04-29T15:31:24.302Z,26.17
2019-04-29T15:33:54.566Z,21.02
2019-04-29T15:36:24.819Z,18.30
2019-04-29T15:39:08.635Z,19.55
2019-04-29T15:41:31.022Z,20.17
2019-04-29T15:44:06.980Z,23.10
2019-04-29T15:46:45.270Z,22.70
2019-04-29T15:49:02.814Z,19.65
2019-04-29T15:51:33.106Z,20.32
2019-04-29T15:54:03.371Z,17.35
2019-04-29T15:56:38.295Z,18.75
2019-04-29T15:59:08.924Z,19.52
2019-04-29T16:01:41.065Z,17.32
2019-04-29T16:04:12.938Z,15.40
2019-04-29T16:07:05.071Z,18.52
2019-04-29T16:09:51.790Z,16.77
2019-04-29T16:12:22.573Z,16.48
2019-04-29T16:14:52.948Z,15.78
2019-04-29T16:17:23.180Z,19.17
2019-04-29T16:19:53.553Z,19.15
2019-04-29T16:22:23.868Z,17.05
2019-04-29T16:24:59.285Z,19.12
2019-04-29T16:27:26.400Z,20.62
2019-04-29T16:29:56.801Z,16.37
2019-04-29T16:32:32.938Z,16.32
2019-04-29T16:35:03.132Z,19.52
2019-04-29T16:37:33.449Z,16.45
2019-04-29T16:40:03.749Z,14.33
2019-04-29T16:42:53.167Z,16.60
2019-04-29T16:45:28.249Z,13.40
2019-04-29T16:47:58.554Z,15.30
2019-04-29T16:50:28.765Z,16.85
2019-04-29T16:52:58.988Z,14.15
2019-04-29T16:55:29.293Z,18.98
2019-04-29T16:58:05.863Z,16.15
2019-04-29T17:00:33.908Z,16.67
2019-04-29T17:03:04.200Z,17.02
2019-04-29T17:05:34.377Z,16.20
2019-04-29T17:08:09.393Z,14.93
2019-04-29T17:11:04.765Z,16.48
2019-04-29T17:13:35.018Z,16.37
2019-04-29T17:16:07.098Z,16.37
2019-04-29T17:18:38.071Z,17.40
2019-04-29T17:21:08.268Z,15.80
2019-04-29T17:23:38.540Z,16.37
2019-04-29T17:26:08.798Z,16.00
2019-04-29T17:29:11.504Z,13.83
2019-04-29T17:31:57.140Z,16.37
2019-04-29T17:34:56.861Z,16.32
2019-04-29T17:37:01.892Z,18.20
2019-04-29T17:39:32.587Z,13.32
2019-04-29T17:42:03.996Z,15.25
2019-04-29T17:44:45.735Z,16.62
2019-04-29T17:47:30.143Z,15.88
2019-04-29T17:50:39.255Z,14.30
2019-04-29T17:53:24.997Z,12.15
2019-04-29T17:56:17.062Z,12.63
2019-04-29T17:58:58.097Z,14.13
2019-04-29T18:01:42.893Z,17.37
2019-04-29T18:04:37.281Z,13.75
2019-04-29T18:07:25.603Z,11.00
2019-04-29T18:10:05.385Z,11.65
2019-04-29T18:12:40.961Z,12.47
2019-04-29T18:15:17.715Z,15.03
2019-04-29T18:17:45.526Z,10.98
2019-04-29T18:20:35.595Z,13.25
2019-04-29T18:23:24.711Z,11.18
2019-04-29T18:26:02.096Z,10.50
2019-04-29T18:28:32.997Z,13.70
2019-04-29T18:31:05.896Z,15.15
2019-04-29T18:33:37.476Z,14.35
2019-04-29T18:36:19.315Z,14.35
2019-04-29T18:38:42.432Z,12.80
2019-04-29T18:41:16.422Z,15.08
2019-04-29T18:43:45.199Z,14.95
2019-04-29T18:46:16.756Z,14.78
2019-04-29T18:48:47.277Z,12.40
2019-04-29T18:51:20.789Z,12.30
2019-04-29T18:53:49.839Z,10.65
2019-04-29T18:56:20.061Z,11.53
2019-04-29T18:58:50.462Z,11.48
2019-04-29T19:01:24.045Z,11.95
2019-04-29T19:04:10.225Z,15.85
2019-04-29T19:06:40.594Z,16.07
2019-04-29T19:09:17.775Z,14.68
2019-04-29T19:11:43.510Z,13.08
2019-04-29T19:14:15.108Z,13.35
2019-04-29T19:16:47.015Z,11.38
2019-04-29T19:19:18.881Z,10.90
2019-04-29T19:21:49.434Z,10.58
2019-04-29T19:24:19.926Z,11.55
2019-04-29T19:26:55.725Z,11.12
2019-04-29T19:29:24.356Z,16.45
2019-04-29T19:31:55.014Z,17.57
2019-04-29T19:34:25.597Z,18.82
2019-04-29T19:36:59.375Z,19.60
2019-04-29T19:39:28.709Z,17.40
2019-04-29T19:41:59.255Z,21.87
2019-04-29T19:44:33.291Z,17.67
2019-04-29T19:47:01.652Z,21.17
2019-04-29T19:49:32.783Z,19.85
2019-04-29T19:52:05.893Z,29.45
2019-04-29T19:54:36.344Z,34.27
2019-04-29T19:57:07.742Z,97.42
2019-04-29T19:59:38.735Z,114.35
2019-04-29T20:02:10.291Z,89.42
2019-04-29T20:04:52.323Z,65.70
2019-04-29T20:07:23.404Z,58.20
2019-04-29T20:10:05.449Z,53.15
2019-04-29T20:12:27.666Z,52.58
2019-04-29T20:15:01.649Z,51.92
2019-04-29T20:17:49.533Z,50.67
2019-04-29T20:20:29.762Z,53.85
2019-04-29T20:23:00.976Z,46.98
2019-04-29T20:25:38.258Z,48.45
2019-04-29T20:28:12.738Z,51.65
2019-04-29T20:30:39.781Z,68.47
2019-04-29T20:33:13.154Z,78.33
2019-04-29T20:35:45.448Z,119.77
2019-04-29T20:38:16.555Z,123.05
2019-04-29T20:40:48.360Z,106.27
2019-04-29T20:43:20.754Z,81.17
2019-04-29T20:45:51.929Z,79.37
2019-04-29T20:48:22.731Z,77.17
2019-04-29T20:50:54.625Z,76.65
2019-04-29T20:53:55.885Z,69.00
2019-04-29T20:56:29.819Z,67.80
2019-04-29T20:59:01.827Z,70.08
2019-04-29T21:01:42.946Z,69.85
2019-04-29T21:04:08.264Z,69.87
2019-04-29T21:06:57.482Z,64.17
2019-04-29T21:09:14.747Z,65.37
2019-04-29T21:12:08.267Z,68.78
2019-04-29T21:14:46.426Z,62.83
2019-04-29T21:17:28.616Z,63.17
2019-04-29T21:19:49.538Z,60.23
2019-04-29T21:22:23.412Z,69.12
2019-04-29T21:24:53.866Z,92.12
2019-04-29T21:27:25.999Z,108.60
2019-04-29T21:29:56.632Z,125.18
2019-04-29T21:32:30.490Z,125.22
2019-04-29T21:35:14.572Z,135.32
2019-04-29T21:37:51.530Z,129.07
2019-04-29T21:40:35.058Z,134.65
2019-04-29T21:43:17.583Z,130.03
2019-04-29T21:45:48.471Z,134.27
2019-04-29T21:48:18.985Z,133.00
2019-04-29T21:50:49.449Z,132.90
2019-04-29T21:53:20.939Z,132.78
2019-04-29T21:55:51.363Z,128.00
2019-04-29T21:58:21.652Z,120.15
2019-04-29T22:00:55.922Z,127.20
2019-04-29T22:03:27.805Z,132.03
2019-04-29T22:06:00.192Z,150.20
2019-04-29T22:08:30.187Z,159.93
2019-04-29T22:11:04.939Z,161.30
2019-04-29T22:13:35.520Z,162.80
2019-04-29T22:16:05.748Z,154.47
2019-04-29T22:18:36.101Z,142.82
2019-04-29T22:21:09.755Z,146.40
2019-04-29T22:23:38.626Z,139.62
2019-04-29T22:26:09.077Z,125.20
2019-04-29T22:28:39.655Z,126.82
2019-04-29T22:31:10.037Z,117.13
2019-04-29T22:33:40.553Z,124.55
2019-04-29T22:36:14.779Z,119.62
2019-04-29T22:38:43.710Z,116.70
2019-04-29T22:41:20.583Z,116.15
2019-04-29T22:43:56.643Z,115.85
2019-04-29T22:46:27.055Z,118.13
2019-04-29T22:48:57.481Z,113.10
2019-04-29T22:51:27.832Z,114.62
2019-04-29T22:53:58.307Z,114.05
2019-04-29T22:56:28.617Z,116.35
2019-04-29T22:58:59.046Z,113.45
2019-04-29T23:01:29.264Z,114.37
2019-04-29T23:03:59.633Z,110.63
2019-04-29T23:06:29.927Z,110.55
2019-04-29T23:09:00.347Z,109.72
2019-04-29T23:11:34.848Z,108.72
2019-04-29T23:14:06.665Z,107.00
2019-04-29T23:16:37.309Z,113.20
2019-04-29T23:19:09.814Z,109.75
2019-04-29T23:22:10.385Z,102.85
2019-04-29T23:24:59.426Z,109.25
2019-04-29T23:27:29.802Z,106.25
2019-04-29T23:30:00.134Z,102.25
2019-04-29T23:32:30.501Z,101.50
2019-04-29T23:35:01.782Z,96.32
2019-04-29T23:37:32.934Z,99.37
2019-04-29T23:40:03.244Z,100.15
2019-04-29T23:42:33.729Z,100.85
2019-04-29T23:45:05.266Z,104.27
2019-04-29T23:47:36.776Z,99.75
2019-04-29T23:50:07.035Z,97.57
2019-04-29T23:52:37.431Z,101.82
2019-04-29T23:55:07.955Z,94.87
2019-04-29T23:58:02.893Z,97.08
